Utica, Nebraska
Current Conditions -  °F | °C
As of 11:35 AM on Thursday 30 Oct 2014 (Local Time) from KJYR Reporting Station
Clear Clear  
Wind Chill: 57°   Ceiling: Unl
Heat Index: 57°   Visibility: 10mi
Dew Point: 39°   Wind: 21mph
Humidity: 51%   Direction: 320°NW
Pressure: 30.13"   Gusts: NA
Location:  40.9°N, 97.35°W
Report Text: KJYR 301635Z AUTO 32018KT 10SM CLR 14/04 A3013 RMK AO2 P0008
Loading
Personal Weather Stations






























Interactive Weather Map
Tropical Storm Tracking
New forecast layout! Learn more

10-Day Weather Forecast

Advertisements
Track Severe Weather on mobile